createdAt,value
2023-03-08T00:01:52.380Z,99962.69
2023-03-08T00:03:56.878Z,99969.56
2023-03-08T00:05:58.399Z,99961.78
2023-03-08T00:07:59.934Z,99973.88
2023-03-08T00:10:01.436Z,99974.72
2023-03-08T00:12:03.002Z,99977.31
2023-03-08T00:14:04.522Z,99980.72
2023-03-08T00:16:08.560Z,99978.13
2023-03-08T00:18:10.061Z,99983.28
2023-03-08T00:20:13.104Z,99976.38
2023-03-08T00:22:14.571Z,99978.97
2023-03-08T00:24:16.829Z,99978.97
2023-03-08T00:26:18.310Z,99979.84
2023-03-08T00:28:19.804Z,99979.84
2023-03-08T00:30:21.507Z,99977.25
2023-03-08T00:32:25.634Z,99974.66
2023-03-08T00:34:27.124Z,99976.38
2023-03-08T00:36:29.237Z,99985.00
2023-03-08T00:38:32.748Z,99977.25
2023-03-08T00:40:34.201Z,99977.22
2023-03-08T00:42:35.658Z,99983.28
2023-03-08T00:44:37.136Z,99980.69
2023-03-08T00:46:38.639Z,99987.59
2023-03-08T00:48:40.797Z,99990.16
2023-03-08T00:50:42.514Z,99991.03
2023-03-08T00:52:44.024Z,99991.03
2023-03-08T00:54:45.506Z,99990.16
2023-03-08T00:56:46.976Z,99999.66
2023-03-08T00:58:48.445Z,99995.31
2023-03-08T01:00:50.400Z,99991.88
2023-03-08T01:02:51.922Z,99990.13
2023-03-08T01:04:53.493Z,99988.41
2023-03-08T01:06:54.951Z,99996.16
2023-03-08T01:08:56.427Z,99985.81
2023-03-08T01:10:59.718Z,99984.94
2023-03-08T01:13:01.340Z,99985.78
2023-03-08T01:15:04.522Z,99979.75
2023-03-08T01:17:06.023Z,99983.19
2023-03-08T01:19:07.572Z,99975.41
2023-03-08T01:21:10.564Z,99976.28
2023-03-08T01:23:12.061Z,99976.28
2023-03-08T01:25:13.552Z,99973.66
2023-03-08T01:27:16.208Z,99977.13
2023-03-08T01:29:17.697Z,99966.75
2023-03-08T01:31:22.042Z,99970.19
2023-03-08T01:33:25.089Z,99964.16
2023-03-08T01:35:26.572Z,99966.75
2023-03-08T01:37:28.023Z,99968.47
2023-03-08T01:39:29.533Z,99965.00
2023-03-08T01:41:31.858Z,99970.19
2023-03-08T01:43:36.302Z,99967.53
2023-03-08T01:46:07.263Z,99969.25
2023-03-08T01:48:08.844Z,99961.47
2023-03-08T01:50:13.095Z,99951.13
2023-03-08T01:52:19.313Z,99948.53
2023-03-08T01:54:31.389Z,99948.53
2023-03-08T01:56:34.433Z,99945.06
2023-03-08T01:58:36.172Z,99945.06
2023-03-08T02:00:38.843Z,99944.22
2023-03-08T02:02:43.717Z,99940.75
2023-03-08T02:04:45.451Z,99937.31
2023-03-08T02:06:46.927Z,99946.78
2023-03-08T02:08:48.575Z,99952.81
2023-03-08T02:10:50.694Z,99940.72
2023-03-08T02:12:52.240Z,99943.31
2023-03-08T02:14:55.107Z,99945.06
2023-03-08T02:16:56.796Z,99944.19
2023-03-08T02:19:04.872Z,99940.75
2023-03-08T02:21:06.325Z,99939.88
2023-03-08T02:23:12.252Z,99942.47
2023-03-08T02:25:18.849Z,99939.91
2023-03-08T02:27:27.026Z,99939.91
2023-03-08T02:29:28.546Z,99939.91
2023-03-08T02:31:30.024Z,99939.91
2023-03-08T02:33:32.386Z,99940.78
2023-03-08T02:35:35.868Z,99953.72
2023-03-08T02:37:37.345Z,99945.94
2023-03-08T02:39:38.806Z,99951.97
2023-03-08T02:41:40.737Z,99951.09
2023-03-08T02:43:42.457Z,99956.28
2023-03-08T02:45:44.502Z,99956.28
2023-03-08T02:47:45.954Z,99955.44
2023-03-08T02:49:47.388Z,99946.81
2023-03-08T02:51:48.843Z,99944.28
2023-03-08T02:53:50.338Z,99940.00
2023-03-08T02:55:51.847Z,99941.75
2023-03-08T02:57:53.331Z,99940.91
2023-03-08T02:59:54.820Z,99940.91
2023-03-08T03:01:57.321Z,99945.25
2023-03-08T03:03:58.801Z,99940.94
2023-03-08T03:06:00.329Z,99944.38
2023-03-08T03:08:01.865Z,99935.78
2023-03-08T03:10:04.761Z,99928.88
2023-03-08T03:12:06.534Z,99936.66
2023-03-08T03:14:08.255Z,99929.75
2023-03-08T03:16:12.287Z,99933.22
2023-03-08T03:18:13.886Z,99935.84
2023-03-08T03:20:15.809Z,99940.19
2023-03-08T03:22:17.272Z,99935.84
2023-03-08T03:24:18.759Z,99942.75
2023-03-08T03:26:22.324Z,99944.50
2023-03-08T03:28:23.799Z,99936.72
2023-03-08T03:30:25.244Z,99944.50
2023-03-08T03:32:27.076Z,99942.78
2023-03-08T03:34:29.796Z,99936.75
2023-03-08T03:36:31.345Z,99945.38
2023-03-08T03:38:32.816Z,99929.84
2023-03-08T03:40:34.270Z,99937.63
2023-03-08T03:42:35.714Z,99925.53
2023-03-08T03:44:37.280Z,99930.69
2023-03-08T03:46:38.840Z,99922.06
2023-03-08T03:48:40.846Z,99929.84
2023-03-08T03:50:42.320Z,99928.09
2023-03-08T03:52:43.804Z,99935.88
2023-03-08T03:54:45.232Z,99934.13
2023-03-08T03:56:46.757Z,99933.28
2023-03-08T03:58:48.752Z,99939.31
2023-03-08T04:00:50.196Z,99939.28
2023-03-08T04:02:52.116Z,99946.19
2023-03-08T04:04:53.602Z,99943.56
2023-03-08T04:06:55.061Z,99952.22
2023-03-08T04:09:04.910Z,99952.22
2023-03-08T04:11:06.410Z,99949.63
2023-03-08T04:13:07.916Z,99958.25
2023-03-08T04:15:09.600Z,99959.13
2023-03-08T04:17:11.055Z,99947.88
2023-03-08T04:19:13.772Z,99952.22
2023-03-08T04:21:15.451Z,99947.03
2023-03-08T04:23:16.941Z,99947.03
2023-03-08T04:25:18.955Z,99940.09
2023-03-08T04:27:20.455Z,99932.31
2023-03-08T04:29:21.910Z,99934.06
2023-03-08T04:31:29.144Z,99936.66
2023-03-08T04:33:30.668Z,99938.34
2023-03-08T04:35:32.125Z,99947.00
2023-03-08T04:37:33.824Z,99949.56
2023-03-08T04:39:35.508Z,99940.94
2023-03-08T04:41:37.029Z,99943.53
2023-03-08T04:43:45.359Z,99943.53
2023-03-08T04:45:47.228Z,99941.81
2023-03-08T04:47:48.674Z,99938.34
2023-03-08T04:49:50.122Z,99942.66
2023-03-08T04:51:51.582Z,99940.06
2023-03-08T04:53:53.046Z,99936.63
2023-03-08T04:55:54.934Z,99933.16
2023-03-08T04:57:56.428Z,99942.66
2023-03-08T04:59:57.930Z,99928.81
2023-03-08T05:01:59.422Z,99932.28
2023-03-08T05:04:00.947Z,99927.09
2023-03-08T05:06:02.460Z,99928.81
2023-03-08T05:08:05.202Z,99921.03
2023-03-08T05:10:06.959Z,99922.75
2023-03-08T05:12:08.791Z,99916.72
2023-03-08T05:14:10.329Z,99916.72
2023-03-08T05:16:12.137Z,99907.19
2023-03-08T05:18:13.671Z,99913.25
2023-03-08T05:20:15.247Z,99914.97
2023-03-08T05:22:16.733Z,99917.56
2023-03-08T05:24:18.326Z,99920.13
2023-03-08T05:26:19.878Z,99922.72
2023-03-08T05:28:23.544Z,99913.22
2023-03-08T05:30:25.124Z,99918.41
2023-03-08T05:32:26.854Z,99914.97
2023-03-08T05:34:29.133Z,99912.38
2023-03-08T05:36:30.618Z,99912.38
2023-03-08T05:38:32.318Z,99912.38
2023-03-08T05:40:33.809Z,99909.78
2023-03-08T05:42:35.398Z,99905.47
2023-03-08T05:44:37.678Z,99900.28
2023-03-08T05:46:39.267Z,99900.28
2023-03-08T05:48:40.845Z,99902.88
2023-03-08T05:50:42.302Z,99897.69
2023-03-08T05:52:43.776Z,99903.75
2023-03-08T05:54:45.246Z,99891.66
2023-03-08T05:56:46.780Z,99902.00
2023-03-08T05:58:48.569Z,99898.56
2023-03-08T06:00:50.080Z,99889.91
2023-03-08T06:02:51.630Z,99890.78
2023-03-08T06:04:53.138Z,99892.50
2023-03-08T06:06:54.659Z,99884.75
2023-03-08T06:08:56.420Z,99880.41
2023-03-08T06:10:57.924Z,99884.75
2023-03-08T06:12:59.376Z,99882.16
2023-03-08T06:15:00.906Z,99878.72
2023-03-08T06:17:02.445Z,99875.25
2023-03-08T06:19:04.214Z,99875.25
2023-03-08T06:21:08.512Z,99881.31
2023-03-08T06:23:09.969Z,99886.47
2023-03-08T06:25:11.462Z,99888.22
2023-03-08T06:27:12.909Z,99889.94
2023-03-08T06:29:14.386Z,99891.69
2023-03-08T06:31:19.483Z,99887.38
2023-03-08T06:33:23.622Z,99891.69
2023-03-08T06:35:25.922Z,99891.69
2023-03-08T06:37:27.410Z,99895.16
2023-03-08T06:39:30.972Z,99896.88
2023-03-08T06:41:32.853Z,99889.13
2023-03-08T06:43:35.687Z,99883.94
2023-03-08T06:45:40.945Z,99886.53
2023-03-08T06:47:42.459Z,99877.06
2023-03-08T06:49:44.686Z,99871.03
2023-03-08T06:51:47.533Z,99873.63
2023-03-08T06:53:49.000Z,99867.56
2023-03-08T06:55:50.486Z,99863.25
2023-03-08T06:57:52.052Z,99863.25
2023-03-08T06:59:53.540Z,99875.41
2023-03-08T07:01:54.992Z,99871.09
2023-03-08T07:03:57.104Z,99861.59
2023-03-08T07:06:00.477Z,99862.44
2023-03-08T07:08:02.022Z,99853.81
2023-03-08T07:10:04.384Z,99857.28
2023-03-08T07:12:08.127Z,99856.41
2023-03-08T07:14:09.793Z,99850.38
2023-03-08T07:16:13.510Z,99856.41
2023-03-08T07:18:16.079Z,99854.69
2023-03-08T07:20:20.217Z,99856.41
2023-03-08T07:22:21.779Z,99856.41
2023-03-08T07:24:23.341Z,99856.41
2023-03-08T07:26:24.801Z,99858.16
2023-03-08T07:28:26.331Z,99858.16
2023-03-08T07:30:27.857Z,99859.03
2023-03-08T07:32:29.466Z,99858.19
2023-03-08T07:34:31.082Z,99863.38
2023-03-08T07:36:33.257Z,99862.50
2023-03-08T07:38:34.753Z,99858.19
2023-03-08T07:40:36.227Z,99859.03
2023-03-08T07:42:37.728Z,99859.03
2023-03-08T07:44:39.211Z,99859.91
2023-03-08T07:46:40.687Z,99859.03
2023-03-08T07:48:42.253Z,99859.03
2023-03-08T07:50:43.825Z,99859.03
2023-03-08T07:52:45.338Z,99859.88
2023-03-08T07:54:46.858Z,99863.34
2023-03-08T07:56:48.294Z,99873.72
2023-03-08T07:58:49.878Z,99869.41
2023-03-08T08:00:51.450Z,99879.81
2023-03-08T08:02:54.120Z,99875.47
2023-03-08T08:04:55.717Z,99872.00
2023-03-08T08:06:59.250Z,99867.69
2023-03-08T08:09:00.716Z,99873.75
2023-03-08T08:11:09.473Z,99872.88
2023-03-08T08:13:11.364Z,99871.16
2023-03-08T08:15:13.001Z,99871.13
2023-03-08T08:17:14.457Z,99874.59
2023-03-08T08:19:17.135Z,99877.16
2023-03-08T08:21:19.082Z,99880.63
2023-03-08T08:23:20.522Z,99874.53
2023-03-08T08:25:22.240Z,99877.16
2023-03-08T08:27:23.690Z,99878.00
2023-03-08T08:29:25.264Z,99878.84
2023-03-08T08:31:31.232Z,99877.09
2023-03-08T08:33:33.394Z,99876.22
2023-03-08T08:35:43.098Z,99880.53
2023-03-08T08:37:45.006Z,99881.41
2023-03-08T08:39:46.446Z,99882.25
2023-03-08T08:41:49.683Z,99884.84
2023-03-08T08:43:51.211Z,99881.34
2023-03-08T08:45:55.784Z,99872.69
2023-03-08T08:47:57.269Z,99867.44
2023-03-08T08:49:58.781Z,99868.25
2023-03-08T08:52:00.240Z,99868.25
2023-03-08T08:54:01.810Z,99871.66
2023-03-08T08:56:28.365Z,99865.59
2023-03-08T08:58:30.158Z,99861.25
2023-03-08T09:00:33.533Z,99851.72
2023-03-08T09:02:35.115Z,99857.75
2023-03-08T09:04:36.758Z,99862.91
2023-03-08T09:06:38.468Z,99858.56
2023-03-08T09:08:40.288Z,99848.97
2023-03-08T09:10:42.278Z,99853.28
2023-03-08T09:12:43.810Z,99848.09
2023-03-08T09:14:45.326Z,99852.38
2023-03-08T09:16:46.987Z,99856.63
2023-03-08T09:18:48.885Z,99849.63
2023-03-08T09:20:50.472Z,99854.81
2023-03-08T09:22:52.036Z,99853.13
2023-03-08T09:24:53.583Z,99846.19
2023-03-08T09:26:55.116Z,99837.53
2023-03-08T09:28:58.733Z,99847.94
2023-03-08T09:31:00.562Z,99835.75
2023-03-08T09:33:02.533Z,99839.19
2023-03-08T09:35:05.255Z,99836.59
2023-03-08T09:37:08.242Z,99827.81
2023-03-08T09:39:13.108Z,99828.50
2023-03-08T09:41:25.743Z,99822.25
2023-03-08T09:43:44.585Z,99813.38
2023-03-08T09:45:46.276Z,99813.16
2023-03-08T09:47:54.114Z,99810.38
2023-03-08T09:50:04.408Z,99809.34
2023-03-08T09:52:22.432Z,99803.97
2023-03-08T09:54:25.142Z,99804.91
2023-03-08T09:56:38.399Z,99798.69
2023-03-08T09:59:25.278Z,99803.69
2023-03-08T10:01:35.667Z,99792.97
2023-03-08T10:03:52.422Z,99794.56
2023-03-08T10:05:59.109Z,99790.03
2023-03-08T10:08:13.633Z,99778.50
2023-03-08T10:10:18.142Z,99782.69
2023-03-08T10:12:52.365Z,99779.06
2023-03-08T10:15:01.494Z,99789.38
2023-03-08T10:17:12.119Z,99779.84
2023-03-08T10:19:27.502Z,99780.94
2023-03-08T10:21:32.814Z,99772.38
2023-03-08T10:23:36.532Z,99777.50
2023-03-08T10:25:39.040Z,99770.44
2023-03-08T10:27:40.596Z,99773.00
2023-03-08T10:29:49.054Z,99780.19
2023-03-08T10:31:50.529Z,99773.25
2023-03-08T10:34:11.233Z,99774.13
2023-03-08T10:36:24.126Z,99773.75
2023-03-08T10:38:30.593Z,99770.56
2023-03-08T10:40:32.181Z,99771.41
2023-03-08T10:42:35.432Z,99762.56
2023-03-08T10:44:55.850Z,99765.94
2023-03-08T10:46:57.540Z,99759.84
2023-03-08T10:49:14.668Z,99760.72
2023-03-08T10:51:23.047Z,99757.03
2023-03-08T10:53:24.568Z,99749.81
2023-03-08T10:55:30.151Z,99753.91
2023-03-08T10:57:32.831Z,99753.69
2023-03-08T10:59:36.464Z,99750.03
2023-03-08T11:01:52.448Z,99749.00
2023-03-08T11:04:00.200Z,99743.59
2023-03-08T11:06:23.322Z,99746.00
2023-03-08T11:08:36.737Z,99745.09
2023-03-08T11:10:38.254Z,99749.47
2023-03-08T11:12:40.320Z,99744.13
2023-03-08T11:14:41.902Z,99739.63
2023-03-08T11:17:04.612Z,99739.53
2023-03-08T11:19:32.842Z,99740.28
2023-03-08T11:22:02.314Z,99734.16
2023-03-08T11:24:09.484Z,99735.00
2023-03-08T11:26:22.570Z,99731.44
2023-03-08T11:28:35.608Z,99738.38
2023-03-08T11:31:15.083Z,99733.38
2023-03-08T11:33:46.064Z,99729.78
2023-03-08T11:36:13.249Z,99727.41
2023-03-08T11:38:17.511Z,99722.09
2023-03-08T11:40:25.155Z,99722.59
2023-03-08T11:42:59.130Z,99726.44
2023-03-08T11:45:19.329Z,99730.38
2023-03-08T11:47:51.508Z,99710.16
2023-03-08T11:50:10.940Z,99704.03
2023-03-08T11:52:28.653Z,99703.22
2023-03-08T11:54:51.839Z,99698.06
2023-03-08T11:57:04.118Z,99704.19
2023-03-08T11:59:33.884Z,99704.03
2023-03-08T12:02:02.691Z,99704.09
2023-03-08T12:04:11.559Z,99688.25
2023-03-08T12:06:28.266Z,99692.38
2023-03-08T12:08:44.031Z,99687.06
2023-03-08T12:10:56.491Z,99684.34
2023-03-08T12:13:04.945Z,99688.63
2023-03-08T12:15:41.219Z,99680.69
2023-03-08T12:17:50.418Z,99686.75
2023-03-08T12:19:52.199Z,99685.75
2023-03-08T12:22:08.942Z,99679.66
2023-03-08T12:24:44.218Z,99673.34
2023-03-08T12:26:51.377Z,99671.50
2023-03-08T12:29:02.183Z,99676.69
2023-03-08T12:31:11.015Z,99681.84
2023-03-08T12:33:20.269Z,99679.22
2023-03-08T12:35:27.505Z,99675.53
2023-03-08T12:37:30.367Z,99678.06
2023-03-08T12:39:36.719Z,99670.94
2023-03-08T12:41:38.579Z,99669.69
2023-03-08T12:43:40.573Z,99671.53
2023-03-08T12:45:45.160Z,99675.81
2023-03-08T12:48:06.867Z,99669.28
2023-03-08T12:50:18.361Z,99668.13
2023-03-08T12:52:19.911Z,99673.16
2023-03-08T12:54:23.702Z,99664.28
2023-03-08T12:56:31.235Z,99664.34
2023-03-08T12:58:34.875Z,99665.31
2023-03-08T13:00:38.378Z,99669.59
2023-03-08T13:02:39.861Z,99670.38
2023-03-08T13:04:42.715Z,99667.56
2023-03-08T13:07:00.533Z,99666.66
2023-03-08T13:09:16.292Z,99677.28
2023-03-08T13:11:18.119Z,99674.50
2023-03-08T13:13:39.560Z,99675.31
2023-03-08T13:15:41.217Z,99677.94
2023-03-08T13:17:50.559Z,99681.28
2023-03-08T13:19:52.334Z,99677.78
2023-03-08T13:22:03.578Z,99674.19
2023-03-08T13:24:17.891Z,99676.72
2023-03-08T13:26:57.542Z,99676.47
2023-03-08T13:28:59.254Z,99669.41
2023-03-08T13:31:25.034Z,99672.06
2023-03-08T13:33:33.370Z,99673.84
2023-03-08T13:35:35.055Z,99673.22
2023-03-08T13:37:36.641Z,99680.22
2023-03-08T13:39:38.145Z,99675.00
2023-03-08T13:41:41.749Z,99679.41
2023-03-08T13:43:43.209Z,99677.72
2023-03-08T13:45:48.969Z,99675.16
2023-03-08T13:47:51.599Z,99672.72
2023-03-08T13:49:55.672Z,99673.69
2023-03-08T13:52:02.305Z,99675.41
2023-03-08T13:54:04.043Z,99664.88
2023-03-08T13:56:06.577Z,99666.56
2023-03-08T13:58:24.573Z,99673.38
2023-03-08T14:00:26.267Z,99664.53
2023-03-08T14:02:30.653Z,99664.53
2023-03-08T14:04:34.838Z,99664.63
2023-03-08T14:06:38.106Z,99652.56
2023-03-08T14:08:39.633Z,99658.78
2023-03-08T14:10:45.384Z,99658.22
2023-03-08T14:12:46.905Z,99654.78
2023-03-08T14:14:55.382Z,99653.03
2023-03-08T14:16:57.690Z,99653.88
2023-03-08T14:19:08.332Z,99644.16
2023-03-08T14:21:39.096Z,99638.72
2023-03-08T14:23:43.212Z,99639.63
2023-03-08T14:25:44.716Z,99642.41
2023-03-08T14:27:46.236Z,99645.13
2023-03-08T14:29:48.332Z,99644.31
2023-03-08T14:31:52.722Z,99637.34
2023-03-08T14:34:05.206Z,99640.00
2023-03-08T14:36:09.722Z,99637.78
2023-03-08T14:38:23.439Z,99637.88
2023-03-08T14:40:26.599Z,99637.78
2023-03-08T14:42:55.730Z,99638.75
2023-03-08T14:45:05.603Z,99637.06
2023-03-08T14:47:21.518Z,99633.56
2023-03-08T14:49:23.860Z,99629.94
2023-03-08T14:51:41.059Z,99635.19
2023-03-08T14:53:43.034Z,99636.09
2023-03-08T14:55:44.730Z,99630.97
2023-03-08T14:57:46.292Z,99628.44
2023-03-08T14:59:48.882Z,99628.69
2023-03-08T15:01:50.468Z,99619.34
2023-03-08T15:03:52.051Z,99618.44
2023-03-08T15:05:55.427Z,99620.22
2023-03-08T15:08:00.441Z,99615.31
2023-03-08T15:10:04.460Z,99608.41
2023-03-08T15:12:09.285Z,99611.88
2023-03-08T15:14:14.278Z,99612.66
2023-03-08T15:16:15.847Z,99605.75
2023-03-08T15:18:17.422Z,99596.16
2023-03-08T15:20:19.546Z,99604.16
2023-03-08T15:22:21.372Z,99600.84
2023-03-08T15:24:23.188Z,99601.69
2023-03-08T15:26:28.745Z,99600.16
2023-03-08T15:28:30.208Z,99595.97
2023-03-08T15:30:33.003Z,99595.16
2023-03-08T15:32:34.844Z,99594.31
2023-03-08T15:34:36.398Z,99598.75
2023-03-08T15:36:37.960Z,99593.59
2023-03-08T15:38:39.419Z,99591.06
2023-03-08T15:40:41.857Z,99589.44
2023-03-08T15:42:43.591Z,99586.84
2023-03-08T15:44:45.043Z,99589.56
2023-03-08T15:46:46.651Z,99588.72
2023-03-08T15:48:50.995Z,99587.88
2023-03-08T15:50:52.542Z,99587.00
2023-03-08T15:52:54.593Z,99584.47
2023-03-08T15:54:56.110Z,99587.94
2023-03-08T15:56:58.450Z,99582.69
2023-03-08T15:59:00.123Z,99580.97
2023-03-08T16:01:01.625Z,99587.88
2023-03-08T16:03:03.161Z,99586.16
2023-03-08T16:05:09.486Z,99585.38
2023-03-08T16:07:16.433Z,99582.84
2023-03-08T16:09:17.902Z,99576.78
2023-03-08T16:11:23.034Z,99581.16
2023-03-08T16:13:24.583Z,99577.78
2023-03-08T16:15:26.255Z,99576.13
2023-03-08T16:17:30.541Z,99576.25
2023-03-08T16:19:33.815Z,99573.66
2023-03-08T16:21:35.279Z,99579.75
2023-03-08T16:23:38.960Z,99581.50
2023-03-08T16:25:43.193Z,99582.59
2023-03-08T16:27:44.870Z,99579.19
2023-03-08T16:29:50.963Z,99576.59
2023-03-08T16:31:52.963Z,99581.84
2023-03-08T16:33:54.422Z,99577.50
2023-03-08T16:35:56.020Z,99571.53
2023-03-08T16:37:57.596Z,99570.66
2023-03-08T16:40:02.047Z,99575.13
2023-03-08T16:42:03.687Z,99577.06
2023-03-08T16:44:07.026Z,99578.88
2023-03-08T16:46:14.163Z,99585.00
2023-03-08T16:48:15.621Z,99585.94
2023-03-08T16:50:17.325Z,99586.88
2023-03-08T16:52:19.293Z,99582.56
2023-03-08T16:54:20.839Z,99587.81
2023-03-08T16:56:25.228Z,99581.78
2023-03-08T16:58:26.694Z,99589.69
2023-03-08T17:00:28.183Z,99588.84
2023-03-08T17:02:29.729Z,99595.00
2023-03-08T17:04:31.234Z,99595.94
2023-03-08T17:06:33.235Z,99597.72
2023-03-08T17:08:34.870Z,99596.00
2023-03-08T17:10:40.674Z,99589.09
2023-03-08T17:12:42.189Z,99585.69
2023-03-08T17:14:44.618Z,99590.13
2023-03-08T17:16:46.140Z,99593.66
2023-03-08T17:18:49.239Z,99596.28
2023-03-08T17:20:52.213Z,99598.06
2023-03-08T17:22:53.665Z,99599.88
2023-03-08T17:24:55.205Z,99609.50
2023-03-08T17:26:56.734Z,99608.66
2023-03-08T17:28:58.197Z,99607.91
2023-03-08T17:30:59.717Z,99617.50
2023-03-08T17:33:01.188Z,99618.44
2023-03-08T17:35:02.681Z,99615.88
2023-03-08T17:37:04.496Z,99609.84
2023-03-08T17:39:06.131Z,99621.16
2023-03-08T17:41:10.967Z,99618.59
2023-03-08T17:43:12.425Z,99613.41
2023-03-08T17:45:15.952Z,99616.88
2023-03-08T17:47:17.420Z,99606.44
2023-03-08T17:49:23.296Z,99608.25
2023-03-08T17:51:27.900Z,99608.25
2023-03-08T17:53:29.735Z,99608.31
2023-03-08T17:55:31.233Z,99599.69
2023-03-08T17:57:32.694Z,99604.09
2023-03-08T17:59:34.160Z,99605.06
2023-03-08T18:01:35.650Z,99607.69
2023-03-08T18:03:37.745Z,99606.94
2023-03-08T18:05:48.690Z,99608.84
2023-03-08T18:07:50.202Z,99610.69
2023-03-08T18:09:51.726Z,99603.81
2023-03-08T18:11:53.180Z,99603.84
2023-03-08T18:13:55.145Z,99608.31
2023-03-08T18:15:56.826Z,99608.41
2023-03-08T18:17:58.435Z,99598.88
2023-03-08T18:20:01.047Z,99596.50
2023-03-08T18:22:04.463Z,99600.94
2023-03-08T18:24:06.254Z,99595.78
2023-03-08T18:26:07.703Z,99603.66
2023-03-08T18:28:09.404Z,99601.91
2023-03-08T18:30:11.923Z,99602.78
2023-03-08T18:32:13.417Z,99602.00
2023-03-08T18:34:15.417Z,99596.00
2023-03-08T18:36:18.049Z,99594.31
2023-03-08T18:38:19.518Z,99595.22
2023-03-08T18:40:21.071Z,99595.25
2023-03-08T18:42:22.592Z,99589.19
2023-03-08T18:44:24.712Z,99589.25
2023-03-08T18:46:28.889Z,99586.69
2023-03-08T18:48:30.537Z,99586.72
2023-03-08T18:50:32.525Z,99581.50
2023-03-08T18:52:34.184Z,99587.56
2023-03-08T18:54:35.902Z,99582.41
2023-03-08T18:56:37.466Z,99576.31
2023-03-08T18:58:38.964Z,99578.94
2023-03-08T19:00:40.489Z,99572.06
2023-03-08T19:02:42.026Z,99575.53
2023-03-08T19:04:43.535Z,99582.53
2023-03-08T19:06:45.141Z,99581.69
2023-03-08T19:08:46.641Z,99581.69
2023-03-08T19:10:48.200Z,99577.38
2023-03-08T19:12:49.723Z,99572.22
2023-03-08T19:14:52.924Z,99588.72
2023-03-08T19:16:54.738Z,99582.69
2023-03-08T19:18:59.040Z,99584.41
2023-03-08T19:21:00.563Z,99586.22
2023-03-08T19:23:02.072Z,99592.31
2023-03-08T19:25:05.871Z,99599.28
2023-03-08T19:27:07.457Z,99595.88
2023-03-08T19:29:23.775Z,99601.09
2023-03-08T19:31:25.305Z,99597.69
2023-03-08T19:33:31.596Z,99603.75
2023-03-08T19:35:34.332Z,99602.91
2023-03-08T19:37:35.954Z,99606.41
2023-03-08T19:39:38.377Z,99609.06
2023-03-08T19:41:40.391Z,99612.53
2023-03-08T19:43:42.719Z,99609.94
2023-03-08T19:45:50.496Z,99604.75
2023-03-08T19:47:52.616Z,99608.22
2023-03-08T19:49:54.097Z,99602.16
2023-03-08T19:51:57.336Z,99601.31
2023-03-08T19:53:58.910Z,99599.59
2023-03-08T19:56:00.393Z,99600.47
2023-03-08T19:58:01.842Z,99603.09
2023-03-08T20:00:06.174Z,99606.59
2023-03-08T20:02:08.913Z,99608.34
2023-03-08T20:04:11.497Z,99609.22
2023-03-08T20:06:20.466Z,99615.31
2023-03-08T20:08:21.989Z,99615.31
2023-03-08T20:10:23.534Z,99611.84
2023-03-08T20:12:25.006Z,99618.78
2023-03-08T20:14:27.197Z,99612.72
2023-03-08T20:16:29.686Z,99610.13
2023-03-08T20:18:31.377Z,99612.72
2023-03-08T20:20:33.153Z,99598.00
2023-03-08T20:22:34.686Z,99605.81
2023-03-08T20:24:36.222Z,99608.41
2023-03-08T20:26:38.006Z,99602.38
2023-03-08T20:28:39.772Z,99605.00
2023-03-08T20:30:41.420Z,99606.72
2023-03-08T20:32:43.195Z,99610.22
2023-03-08T20:34:44.697Z,99624.09
2023-03-08T20:36:47.409Z,99624.97
2023-03-08T20:38:49.232Z,99622.38
2023-03-08T20:41:01.939Z,99624.13
2023-03-08T20:43:03.420Z,99625.88
2023-03-08T20:45:05.717Z,99629.38
2023-03-08T20:47:07.432Z,99621.56
2023-03-08T20:49:11.134Z,99612.06
2023-03-08T20:51:17.606Z,99612.91
2023-03-08T20:53:19.075Z,99611.22
2023-03-08T20:55:20.905Z,99603.44
2023-03-08T20:57:22.932Z,99612.09
2023-03-08T20:59:26.914Z,99606.06
2023-03-08T21:01:31.416Z,99611.28
2023-03-08T21:03:32.938Z,99605.22
2023-03-08T21:05:35.934Z,99601.75
2023-03-08T21:07:37.420Z,99601.75
2023-03-08T21:09:38.892Z,99594.81
2023-03-08T21:11:40.743Z,99590.50
2023-03-08T21:13:42.956Z,99590.50
2023-03-08T21:15:44.572Z,99589.69
2023-03-08T21:17:46.068Z,99580.19
2023-03-08T21:19:50.944Z,99570.63
2023-03-08T21:21:52.583Z,99560.25
2023-03-08T21:23:59.489Z,99559.38
2023-03-08T21:26:01.297Z,99562.84
2023-03-08T21:28:02.875Z,99559.41
2023-03-08T21:30:06.122Z,99561.16
2023-03-08T21:32:07.656Z,99550.75
2023-03-08T21:34:09.327Z,99548.13
2023-03-08T21:36:11.156Z,99546.41
2023-03-08T21:38:12.654Z,99543.84
2023-03-08T21:40:14.538Z,99539.50
2023-03-08T21:42:16.018Z,99541.22
2023-03-08T21:44:19.789Z,99533.44
2023-03-08T21:46:21.423Z,99542.09
2023-03-08T21:48:22.913Z,99543.00
2023-03-08T21:50:24.395Z,99545.63
2023-03-08T21:52:25.919Z,99551.69
2023-03-08T21:54:29.852Z,99557.78
2023-03-08T21:56:31.416Z,99553.41
2023-03-08T21:58:32.888Z,99554.28
2023-03-08T22:00:34.834Z,99555.16
2023-03-08T22:02:36.485Z,99554.28
2023-03-08T22:04:39.026Z,99550.81
2023-03-08T22:06:40.814Z,99549.09
2023-03-08T22:08:42.311Z,99552.56
2023-03-08T22:10:43.764Z,99543.88
2023-03-08T22:12:47.284Z,99548.22
2023-03-08T22:14:48.824Z,99547.31
2023-03-08T22:16:50.322Z,99542.13
2023-03-08T22:18:56.773Z,99550.78
2023-03-08T22:20:59.072Z,99536.06
2023-03-08T22:23:01.444Z,99532.59
2023-03-08T22:25:03.621Z,99540.38
2023-03-08T22:27:05.378Z,99543.00
2023-03-08T22:29:06.872Z,99548.19
2023-03-08T22:31:13.853Z,99537.78
2023-03-08T22:33:15.829Z,99545.56
2023-03-08T22:35:17.923Z,99542.09
2023-03-08T22:37:19.497Z,99542.94
2023-03-08T22:39:20.972Z,99541.22
2023-03-08T22:41:24.902Z,99542.09
2023-03-08T22:43:27.088Z,99536.03
2023-03-08T22:45:29.657Z,99532.56
2023-03-08T22:47:31.487Z,99534.31
2023-03-08T22:49:34.328Z,99537.75
2023-03-08T22:51:36.441Z,99543.84
2023-03-08T22:53:38.592Z,99543.84
2023-03-08T22:55:46.606Z,99543.00
2023-03-08T22:57:48.277Z,99540.38
2023-03-08T22:59:49.748Z,99539.50
2023-03-08T23:01:52.463Z,99540.38
2023-03-08T23:03:57.081Z,99539.53
2023-03-08T23:05:58.608Z,99530.00
2023-03-08T23:08:00.123Z,99525.66
2023-03-08T23:10:01.557Z,99530.88
2023-03-08T23:12:04.894Z,99532.59
2023-03-08T23:14:08.002Z,99530.88
2023-03-08T23:16:13.725Z,99530.00
2023-03-08T23:18:15.245Z,99535.22
2023-03-08T23:20:19.888Z,99546.47
2023-03-08T23:22:21.442Z,99534.34
2023-03-08T23:24:22.930Z,99531.75
2023-03-08T23:26:27.159Z,99526.53
2023-03-08T23:28:28.604Z,99535.22
2023-03-08T23:30:30.093Z,99531.75
2023-03-08T23:32:31.838Z,99528.31
2023-03-08T23:34:33.623Z,99516.19
2023-03-08T23:36:35.152Z,99523.97
2023-03-08T23:38:36.604Z,99525.72
2023-03-08T23:40:39.848Z,99521.41
2023-03-08T23:42:41.698Z,99516.22
2023-03-08T23:44:43.154Z,99514.47
2023-03-08T23:46:46.299Z,99519.69
2023-03-08T23:48:48.643Z,99514.47
2023-03-08T23:50:50.112Z,99520.53
2023-03-08T23:52:51.590Z,99517.97
2023-03-08T23:54:53.576Z,99524.91
2023-03-08T23:56:55.031Z,99517.97
2023-03-08T23:58:58.392Z,99510.16
